createdAt,value
2019-02-27T00:02:17.767Z,28.32
2019-02-27T00:04:49.226Z,29.23
2019-02-27T00:07:21.080Z,19.52
2019-02-27T00:09:53.034Z,25.12
2019-02-27T00:12:25.773Z,26.12
2019-02-27T00:14:57.277Z,25.82
2019-02-27T00:17:28.659Z,26.40
2019-02-27T00:20:04.073Z,26.37
2019-02-27T00:22:34.486Z,27.48
2019-02-27T00:25:05.851Z,30.37
2019-02-27T00:27:37.286Z,18.57
2019-02-27T00:30:10.571Z,28.67
2019-02-27T00:32:42.713Z,27.37
2019-02-27T00:35:14.117Z,30.48
2019-02-27T00:37:45.564Z,26.97
2019-02-27T00:40:16.883Z,20.70
2019-02-27T00:42:48.191Z,24.72
2019-02-27T00:45:19.618Z,22.27
2019-02-27T00:47:53.308Z,24.43
2019-02-27T00:50:24.158Z,28.77
2019-02-27T00:52:55.489Z,28.35
2019-02-27T00:55:26.798Z,27.02
2019-02-27T00:57:58.223Z,25.37
2019-02-27T01:00:29.650Z,27.05
2019-02-27T01:03:01.079Z,20.77
2019-02-27T01:05:32.395Z,21.97
2019-02-27T01:08:03.712Z,28.85
2019-02-27T01:10:35.031Z,30.12
2019-02-27T01:13:06.338Z,29.27
2019-02-27T01:15:37.760Z,29.20
2019-02-27T01:18:09.139Z,29.27
2019-02-27T01:20:45.551Z,26.70
2019-02-27T01:23:13.639Z,25.48
2019-02-27T01:25:46.083Z,29.05
2019-02-27T01:28:17.526Z,32.67
2019-02-27T01:30:48.968Z,34.65
2019-02-27T01:33:20.296Z,36.60
2019-02-27T01:35:52.410Z,35.23
2019-02-27T01:38:23.949Z,35.63
2019-02-27T01:40:55.320Z,32.75
2019-02-27T01:43:26.626Z,40.40
2019-02-27T01:45:58.938Z,35.03
2019-02-27T01:48:30.358Z,21.37
2019-02-27T01:51:01.695Z,29.52
2019-02-27T01:53:33.076Z,24.27
2019-02-27T01:56:04.514Z,29.77
2019-02-27T01:58:36.099Z,30.88
2019-02-27T02:01:07.338Z,29.65
2019-02-27T02:03:39.065Z,23.22
2019-02-27T02:06:10.543Z,21.45
2019-02-27T02:08:41.954Z,22.52
2019-02-27T02:11:13.408Z,19.20
2019-02-27T02:13:56.912Z,21.30
2019-02-27T02:16:34.119Z,24.12
2019-02-27T02:19:22.438Z,24.50
2019-02-27T02:22:14.795Z,19.82
2019-02-27T02:25:13.422Z,17.90
2019-02-27T02:28:22.801Z,14.90
2019-02-27T02:31:04.933Z,17.23
2019-02-27T02:33:54.506Z,14.93
2019-02-27T02:36:46.459Z,15.20
2019-02-27T02:39:30.079Z,13.70
2019-02-27T02:42:07.263Z,10.72
2019-02-27T02:44:44.193Z,9.13
2019-02-27T02:47:36.506Z,9.45
2019-02-27T02:52:59.428Z,9.80
2019-02-27T02:55:49.325Z,10.63
2019-02-27T02:58:26.941Z,18.50
2019-02-27T03:01:07.188Z,18.40
2019-02-27T03:03:44.464Z,16.87
2019-02-27T03:06:24.663Z,18.98
2019-02-27T03:09:05.174Z,18.98
2019-02-27T03:11:54.157Z,21.42
2019-02-27T03:14:54.353Z,21.95
2019-02-27T03:17:45.034Z,18.62
2019-02-27T03:20:51.760Z,20.92
2019-02-27T03:23:39.327Z,21.68
2019-02-27T03:26:22.848Z,20.50
2019-02-27T03:29:21.654Z,20.15
2019-02-27T03:32:17.043Z,19.85
2019-02-27T03:35:06.588Z,19.40
2019-02-27T03:37:48.142Z,21.25
2019-02-27T03:40:36.216Z,23.95
2019-02-27T03:43:22.457Z,22.90
2019-02-27T03:45:56.952Z,21.85
2019-02-27T03:48:46.489Z,20.55
2019-02-27T03:51:29.700Z,20.25
2019-02-27T03:54:12.927Z,21.65
2019-02-27T03:56:56.249Z,23.83
2019-02-27T03:59:50.520Z,20.90
2019-02-27T04:02:27.915Z,20.75
2019-02-27T04:05:20.122Z,21.02
2019-02-27T04:10:23.519Z,17.30
2019-02-27T04:12:54.830Z,14.83
2019-02-27T04:15:26.256Z,11.97
2019-02-27T04:17:56.604Z,10.18
2019-02-27T04:20:27.997Z,16.10
2019-02-27T04:22:59.465Z,18.17
2019-02-27T04:25:31.385Z,19.70
2019-02-27T04:28:04.907Z,22.52
2019-02-27T04:30:36.361Z,20.77
2019-02-27T04:33:08.312Z,16.37
2019-02-27T04:35:40.217Z,23.73
2019-02-27T04:38:11.815Z,20.90
2019-02-27T04:40:44.170Z,13.93
2019-02-27T04:43:16.338Z,17.02
2019-02-27T04:45:47.715Z,16.35
2019-02-27T04:48:19.057Z,11.83
2019-02-27T04:50:50.506Z,12.73
2019-02-27T04:53:21.843Z,8.20
2019-02-27T04:55:53.090Z,13.20
2019-02-27T04:58:24.420Z,10.18
2019-02-27T05:00:58.922Z,14.65
2019-02-27T05:03:28.884Z,17.82
2019-02-27T05:06:00.263Z,14.63
2019-02-27T05:08:31.690Z,14.50
2019-02-27T05:11:03.070Z,12.80
2019-02-27T05:13:34.608Z,13.28
2019-02-27T05:16:06.151Z,14.40
2019-02-27T05:18:37.826Z,12.20
2019-02-27T05:21:09.178Z,11.30
2019-02-27T05:23:40.602Z,12.30
2019-02-27T05:26:12.057Z,11.70
2019-02-27T05:28:43.517Z,11.12
2019-02-27T05:31:18.221Z,11.20
2019-02-27T05:33:48.022Z,13.15
2019-02-27T05:36:19.497Z,14.33
2019-02-27T05:38:50.875Z,11.68
2019-02-27T05:41:22.430Z,13.03
2019-02-27T05:43:53.762Z,13.08
2019-02-27T05:46:25.187Z,10.80
2019-02-27T05:48:56.640Z,11.22
2019-02-27T05:51:28.084Z,10.03
2019-02-27T05:53:59.470Z,13.38
2019-02-27T05:56:30.883Z,12.43
2019-02-27T05:59:02.278Z,12.63
2019-02-27T06:01:37.726Z,10.38
2019-02-27T06:04:06.719Z,13.30
2019-02-27T06:06:38.123Z,13.55
2019-02-27T06:09:10.489Z,9.38
2019-02-27T06:11:42.192Z,10.90
2019-02-27T06:14:13.518Z,11.97
2019-02-27T06:16:44.839Z,13.35
2019-02-27T06:19:16.281Z,11.55
2019-02-27T06:21:47.609Z,11.70
2019-02-27T06:24:18.978Z,11.93
2019-02-27T06:26:50.357Z,11.40
2019-02-27T06:29:23.940Z,10.80
2019-02-27T06:31:54.968Z,10.80
2019-02-27T06:34:26.434Z,11.88
2019-02-27T06:36:57.745Z,11.20
2019-02-27T06:39:34.115Z,10.80
2019-02-27T06:42:02.795Z,10.75
2019-02-27T06:44:36.598Z,10.85
2019-02-27T06:47:07.323Z,11.60
2019-02-27T06:49:38.728Z,11.22
2019-02-27T06:52:10.150Z,11.03
2019-02-27T06:54:41.524Z,11.22
2019-02-27T06:57:12.895Z,11.45
2019-02-27T06:59:44.313Z,8.73
2019-02-27T07:02:15.672Z,10.30
2019-02-27T07:04:46.983Z,12.37
2019-02-27T07:07:18.442Z,12.37
2019-02-27T07:09:49.916Z,9.88
2019-02-27T07:12:21.819Z,8.80
2019-02-27T07:14:53.704Z,10.20
2019-02-27T07:17:25.406Z,10.58
2019-02-27T07:19:57.014Z,10.23
2019-02-27T07:22:28.375Z,12.03
2019-02-27T07:24:59.853Z,11.10
2019-02-27T07:27:31.919Z,8.83
2019-02-27T07:32:36.666Z,13.05
2019-02-27T07:35:10.080Z,14.63
2019-02-27T07:37:41.446Z,16.77
2019-02-27T07:40:19.116Z,11.22
2019-02-27T07:42:50.457Z,10.43
2019-02-27T07:45:23.064Z,9.88
2019-02-27T07:47:54.461Z,12.28
2019-02-27T07:50:25.771Z,10.95
2019-02-27T07:52:57.268Z,11.00
2019-02-27T07:55:28.654Z,9.20
2019-02-27T07:58:00.006Z,16.67
2019-02-27T08:00:31.493Z,8.58
2019-02-27T08:03:02.851Z,10.63
2019-02-27T08:05:34.180Z,17.12
2019-02-27T08:08:05.651Z,10.48
2019-02-27T08:10:37.538Z,10.93
2019-02-27T08:13:09.148Z,11.50
2019-02-27T08:15:40.624Z,13.25
2019-02-27T08:18:12.017Z,12.28
2019-02-27T08:20:43.459Z,8.38
2019-02-27T08:23:15.644Z,8.05
2019-02-27T08:25:47.238Z,9.50
2019-02-27T08:28:18.578Z,9.83
2019-02-27T08:30:49.956Z,9.70
2019-02-27T08:33:21.173Z,16.10
2019-02-27T08:35:52.822Z,24.95
2019-02-27T08:38:24.181Z,11.43
2019-02-27T08:40:58.286Z,6.72
2019-02-27T08:43:30.441Z,11.60
2019-02-27T08:46:02.476Z,11.10
2019-02-27T08:48:34.788Z,9.13
2019-02-27T08:51:08.588Z,13.25
2019-02-27T08:53:39.210Z,11.22
2019-02-27T08:56:12.447Z,13.43
2019-02-27T08:58:43.669Z,9.08
2019-02-27T09:01:15.090Z,7.72
2019-02-27T09:03:46.383Z,11.45
2019-02-27T09:06:18.678Z,11.20
2019-02-27T09:08:50.270Z,9.73
2019-02-27T09:11:21.621Z,9.35
2019-02-27T09:13:52.853Z,7.80
2019-02-27T09:16:26.112Z,11.25
2019-02-27T09:18:57.323Z,9.70
2019-02-27T09:21:28.775Z,10.50
2019-02-27T09:24:00.439Z,8.78
2019-02-27T09:26:35.993Z,9.20
2019-02-27T09:29:05.787Z,10.18
2019-02-27T09:31:38.585Z,9.38
2019-02-27T09:34:10.136Z,9.38
2019-02-27T09:36:43.305Z,6.53
2019-02-27T09:39:14.547Z,7.75
2019-02-27T09:41:46.948Z,8.43
2019-02-27T09:44:18.573Z,10.30
2019-02-27T09:46:52.330Z,8.10
2019-02-27T09:49:22.934Z,9.33
2019-02-27T09:51:56.380Z,12.47
2019-02-27T09:54:28.325Z,9.58
2019-02-27T09:57:02.122Z,11.30
2019-02-27T09:59:32.638Z,13.83
2019-02-27T10:02:06.281Z,16.20
2019-02-27T10:04:37.247Z,12.35
2019-02-27T10:07:08.563Z,12.50
2019-02-27T10:09:40.454Z,14.87
2019-02-27T10:14:42.546Z,14.18
2019-02-27T10:17:13.870Z,15.15
2019-02-27T10:19:45.330Z,13.10
2019-02-27T10:22:17.643Z,14.45
2019-02-27T10:24:49.690Z,13.28
2019-02-27T10:27:21.112Z,15.93
2019-02-27T10:29:52.412Z,14.23
2019-02-27T10:32:23.921Z,14.83
2019-02-27T10:34:55.367Z,19.20
2019-02-27T10:37:26.716Z,11.97
2019-02-27T10:39:58.157Z,10.53
2019-02-27T10:42:29.529Z,9.40
2019-02-27T10:45:00.861Z,9.25
2019-02-27T10:47:33.663Z,8.25
2019-02-27T10:50:08.033Z,10.43
2019-02-27T10:52:39.336Z,8.30
2019-02-27T10:55:14.236Z,8.75
2019-02-27T10:57:46.390Z,11.00
2019-02-27T11:00:29.467Z,11.78
2019-02-27T11:03:01.858Z,8.93
2019-02-27T11:05:37.656Z,10.10
2019-02-27T11:08:08.995Z,7.75
2019-02-27T11:10:40.265Z,10.90
2019-02-27T11:13:11.700Z,11.90
2019-02-27T11:15:44.673Z,11.05
2019-02-27T11:18:16.166Z,16.77
2019-02-27T11:20:47.600Z,16.37
2019-02-27T11:23:19.029Z,17.62
2019-02-27T11:25:50.378Z,9.70
2019-02-27T11:28:21.723Z,16.07
2019-02-27T11:30:53.164Z,15.58
2019-02-27T11:33:25.897Z,10.70
2019-02-27T11:35:57.636Z,8.88
2019-02-27T11:38:28.881Z,14.65
2019-02-27T11:41:00.235Z,10.68
2019-02-27T11:43:31.542Z,12.78
2019-02-27T11:46:03.017Z,12.68
2019-02-27T11:48:34.462Z,6.22
2019-02-27T11:51:05.786Z,16.12
2019-02-27T11:53:38.460Z,13.32
2019-02-27T11:56:09.939Z,10.13
2019-02-27T11:58:41.389Z,11.48
2019-02-27T12:01:12.841Z,9.80
2019-02-27T12:03:46.021Z,7.83
2019-02-27T12:06:17.267Z,9.15
2019-02-27T12:08:48.412Z,14.35
2019-02-27T12:11:19.741Z,11.22
2019-02-27T12:13:51.120Z,9.95
2019-02-27T12:16:22.342Z,9.30
2019-02-27T12:18:53.701Z,9.95
2019-02-27T12:21:25.615Z,12.07
2019-02-27T12:23:57.832Z,10.50
2019-02-27T12:26:29.291Z,7.87
2019-02-27T12:29:00.532Z,10.20
2019-02-27T12:31:31.972Z,10.88
2019-02-27T12:34:03.441Z,11.05
2019-02-27T12:36:34.794Z,7.60
2019-02-27T12:39:06.727Z,8.73
2019-02-27T12:44:08.509Z,8.23
2019-02-27T12:46:39.767Z,7.17
2019-02-27T12:49:11.068Z,7.47
2019-02-27T12:51:42.350Z,8.65
2019-02-27T12:54:13.717Z,8.35
2019-02-27T12:56:45.041Z,7.72
2019-02-27T12:59:16.414Z,10.13
2019-02-27T13:01:50.788Z,8.48
2019-02-27T13:04:20.830Z,10.13
2019-02-27T13:06:53.308Z,10.32
2019-02-27T13:09:25.306Z,11.20
2019-02-27T13:14:27.229Z,10.18
2019-02-27T13:16:58.672Z,10.32
2019-02-27T13:19:30.030Z,11.95
2019-02-27T13:22:01.257Z,15.03
2019-02-27T13:24:32.628Z,10.72
2019-02-27T13:27:08.986Z,9.55
2019-02-27T13:29:36.963Z,12.47
2019-02-27T13:32:08.305Z,12.68
2019-02-27T13:34:39.628Z,13.83
2019-02-27T13:37:11.135Z,14.23
2019-02-27T13:39:42.445Z,13.70
2019-02-27T13:42:18.408Z,14.45
2019-02-27T13:44:47.089Z,18.07
2019-02-27T13:47:18.569Z,18.65
2019-02-27T13:49:49.921Z,20.57
2019-02-27T13:52:21.330Z,18.73
2019-02-27T13:54:52.798Z,14.63
2019-02-27T13:57:25.698Z,18.20
2019-02-27T13:59:57.403Z,16.77
2019-02-27T14:02:28.790Z,14.20
2019-02-27T14:05:00.779Z,14.73
2019-02-27T14:07:34.050Z,11.75
2019-02-27T14:10:08.539Z,10.15
2019-02-27T14:12:39.923Z,13.03
2019-02-27T14:15:13.264Z,10.85
2019-02-27T14:17:44.855Z,18.45
2019-02-27T14:20:18.354Z,19.15
2019-02-27T14:22:49.818Z,14.47
2019-02-27T14:25:28.483Z,12.30
2019-02-27T14:27:56.432Z,12.78
2019-02-27T14:30:39.754Z,13.53
2019-02-27T14:33:11.210Z,11.85
2019-02-27T14:35:43.037Z,13.20
2019-02-27T14:38:14.493Z,12.05
2019-02-27T14:40:45.942Z,13.38
2019-02-27T14:43:17.395Z,12.60
2019-02-27T14:45:50.719Z,14.47
2019-02-27T14:48:22.273Z,14.58
2019-02-27T14:50:53.673Z,14.78
2019-02-27T14:53:26.270Z,15.75
2019-02-27T14:55:57.584Z,11.93
2019-02-27T14:58:28.959Z,16.23
2019-02-27T15:01:00.405Z,18.48
2019-02-27T15:03:33.226Z,17.17
2019-02-27T15:06:04.674Z,20.08
2019-02-27T15:08:36.198Z,23.45
2019-02-27T15:11:07.623Z,23.38
2019-02-27T15:13:39.190Z,27.42
2019-02-27T15:16:10.645Z,28.73
2019-02-27T15:18:42.092Z,25.45
2019-02-27T15:21:13.819Z,26.17
2019-02-27T15:23:45.491Z,23.83
2019-02-27T15:26:17.196Z,20.20
2019-02-27T15:28:48.613Z,17.90
2019-02-27T15:31:21.469Z,22.02
2019-02-27T15:33:54.043Z,21.97
2019-02-27T15:36:29.466Z,22.32
2019-02-27T15:38:58.724Z,23.22
2019-02-27T15:41:30.151Z,24.40
2019-02-27T15:44:01.608Z,30.62
2019-02-27T15:46:33.059Z,30.02
2019-02-27T15:49:04.395Z,30.25
2019-02-27T15:51:35.791Z,29.15
2019-02-27T15:54:07.417Z,27.80
2019-02-27T15:56:41.972Z,30.40
2019-02-27T15:59:13.265Z,30.32
2019-02-27T16:01:44.562Z,22.20
2019-02-27T16:04:17.594Z,29.60
2019-02-27T16:06:51.195Z,30.90
2019-02-27T16:09:22.867Z,33.48
2019-02-27T16:11:54.228Z,30.05
2019-02-27T16:14:25.557Z,32.40
2019-02-27T16:16:57.561Z,34.25
2019-02-27T16:19:30.010Z,31.17
2019-02-27T16:22:01.308Z,23.40
2019-02-27T16:24:32.719Z,25.10
2019-02-27T16:27:04.148Z,20.12
2019-02-27T16:29:35.504Z,21.00
2019-02-27T16:32:06.856Z,20.62
2019-02-27T16:34:38.286Z,21.07
2019-02-27T16:37:09.783Z,20.10
2019-02-27T16:39:42.313Z,16.80
2019-02-27T16:42:14.330Z,17.42
2019-02-27T16:44:45.715Z,16.50
2019-02-27T16:47:19.627Z,11.63
2019-02-27T16:49:50.659Z,16.07
2019-02-27T16:54:52.461Z,15.40
2019-02-27T16:57:24.530Z,14.15
2019-02-27T16:59:56.262Z,15.08
2019-02-27T17:02:27.608Z,15.03
2019-02-27T17:04:59.098Z,15.23
2019-02-27T17:07:30.522Z,14.70
2019-02-27T17:10:01.912Z,14.55
2019-02-27T17:12:34.519Z,14.73
2019-02-27T17:15:05.995Z,11.28
2019-02-27T17:17:37.256Z,16.73
2019-02-27T17:20:17.339Z,21.02
2019-02-27T17:22:48.953Z,22.15
2019-02-27T17:25:21.390Z,24.18
2019-02-27T17:27:53.579Z,29.05
2019-02-27T17:30:26.635Z,32.33
2019-02-27T17:32:58.082Z,26.80
2019-02-27T17:35:29.341Z,26.97
2019-02-27T17:38:00.733Z,25.50
2019-02-27T17:40:36.215Z,23.40
2019-02-27T17:43:06.807Z,25.52
2019-02-27T17:45:39.191Z,28.17
2019-02-27T17:48:12.333Z,28.83
2019-02-27T17:50:44.403Z,26.77
2019-02-27T17:53:15.715Z,27.67
2019-02-27T17:55:47.268Z,27.58
2019-02-27T17:58:18.625Z,27.00
2019-02-27T18:00:51.716Z,28.25
2019-02-27T18:03:24.962Z,28.23
2019-02-27T18:05:59.425Z,25.12
2019-02-27T18:08:31.453Z,24.92
2019-02-27T18:11:03.123Z,24.77
2019-02-27T18:13:36.370Z,22.25
2019-02-27T18:16:07.911Z,19.85
2019-02-27T18:18:43.334Z,19.45
2019-02-27T18:21:12.492Z,19.15
2019-02-27T18:23:43.943Z,21.70
2019-02-27T18:26:16.379Z,21.75
2019-02-27T18:28:49.390Z,25.43
2019-02-27T18:31:20.859Z,32.20
2019-02-27T18:33:52.392Z,30.48
2019-02-27T18:36:23.745Z,34.27
2019-02-27T18:38:55.189Z,32.33
2019-02-27T18:41:26.648Z,40.10
2019-02-27T18:43:57.969Z,37.35
2019-02-27T18:46:29.446Z,34.58
2019-02-27T18:49:00.809Z,39.13
2019-02-27T18:51:33.243Z,30.45
2019-02-27T18:54:06.533Z,38.60
2019-02-27T18:56:40.371Z,33.92
2019-02-27T18:59:11.002Z,36.08
2019-02-27T19:01:45.105Z,32.23
2019-02-27T19:04:15.561Z,29.00
2019-02-27T19:06:47.026Z,30.82
2019-02-27T19:09:18.404Z,19.92
2019-02-27T19:11:50.945Z,26.60
2019-02-27T19:14:25.335Z,24.43
2019-02-27T19:16:56.780Z,35.20
2019-02-27T19:19:28.091Z,35.05
2019-02-27T19:21:59.429Z,37.70
2019-02-27T19:24:32.570Z,38.78
2019-02-27T19:27:04.233Z,29.75
2019-02-27T19:29:36.912Z,36.38
2019-02-27T19:32:08.351Z,26.07
2019-02-27T19:34:41.490Z,17.73
2019-02-27T19:37:13.076Z,23.62
2019-02-27T19:39:44.425Z,22.60
2019-02-27T19:42:16.271Z,24.02
2019-02-27T19:47:18.567Z,29.23
2019-02-27T19:49:52.098Z,26.25
2019-02-27T19:52:26.852Z,28.55
2019-02-27T19:54:58.251Z,26.23
2019-02-27T19:57:29.717Z,27.70
2019-02-27T20:00:01.059Z,26.80
2019-02-27T20:02:32.706Z,23.18
2019-02-27T20:05:04.390Z,30.10
2019-02-27T20:07:36.496Z,25.60
2019-02-27T20:10:13.647Z,25.40
2019-02-27T20:12:47.821Z,24.15
2019-02-27T20:15:20.883Z,31.75
2019-02-27T20:17:52.215Z,26.10
2019-02-27T20:20:23.821Z,22.10
2019-02-27T20:22:55.542Z,29.92
2019-02-27T20:25:29.088Z,39.50
2019-02-27T20:28:00.530Z,24.95
2019-02-27T20:30:31.854Z,20.97
2019-02-27T20:33:03.328Z,24.07
2019-02-27T20:35:34.883Z,28.00
2019-02-27T20:38:06.330Z,26.07
2019-02-27T20:40:37.648Z,19.40
2019-02-27T20:43:08.972Z,32.60
2019-02-27T20:45:42.945Z,36.65
2019-02-27T20:48:13.374Z,36.98
2019-02-27T20:50:47.678Z,42.03
2019-02-27T20:53:20.997Z,32.88
2019-02-27T20:55:52.023Z,32.98
2019-02-27T20:58:23.450Z,35.20
2019-02-27T21:00:55.668Z,26.90
2019-02-27T21:03:27.999Z,24.27
2019-02-27T21:05:59.708Z,27.15
2019-02-27T21:08:33.340Z,28.62
2019-02-27T21:11:04.192Z,38.13
2019-02-27T21:13:35.669Z,31.80
2019-02-27T21:16:09.362Z,25.77
2019-02-27T21:18:40.089Z,34.43
2019-02-27T21:21:11.519Z,33.02
2019-02-27T21:23:42.934Z,22.93
2019-02-27T21:26:14.302Z,23.77
2019-02-27T21:28:45.788Z,24.10
2019-02-27T21:31:17.148Z,24.10
2019-02-27T21:33:48.566Z,21.20
2019-02-27T21:36:20.024Z,23.85
2019-02-27T21:38:51.541Z,22.20
2019-02-27T21:41:23.045Z,25.62
2019-02-27T21:43:56.590Z,30.40
2019-02-27T21:46:28.648Z,35.48
2019-02-27T21:48:59.997Z,34.55
2019-02-27T21:51:31.399Z,36.93
2019-02-27T21:54:03.966Z,34.65
2019-02-27T21:56:35.895Z,36.38
2019-02-27T21:59:07.242Z,36.33
2019-02-27T22:01:38.611Z,33.42
2019-02-27T22:04:10.926Z,28.73
2019-02-27T22:06:42.454Z,20.25
2019-02-27T22:09:14.538Z,24.02
2019-02-27T22:11:45.963Z,23.83
2019-02-27T22:14:17.779Z,24.57
2019-02-27T22:16:49.395Z,31.25
2019-02-27T22:19:20.833Z,58.55
2019-02-27T22:21:52.277Z,78.25
2019-02-27T22:24:24.532Z,67.85
2019-02-27T22:26:55.858Z,81.05
2019-02-27T22:29:28.543Z,68.42
2019-02-27T22:32:00.110Z,73.05
2019-02-27T22:34:31.566Z,60.15
2019-02-27T22:37:03.035Z,52.90
2019-02-27T22:39:34.464Z,46.80
2019-02-27T22:42:05.788Z,46.92
2019-02-27T22:44:37.080Z,52.78
2019-02-27T22:47:08.502Z,52.50
2019-02-27T22:49:39.851Z,49.90
2019-02-27T22:52:11.203Z,54.83
2019-02-27T22:54:42.662Z,53.52
2019-02-27T22:57:13.971Z,54.88
2019-02-27T22:59:45.567Z,49.23
2019-02-27T23:02:16.996Z,49.67
2019-02-27T23:04:48.341Z,70.12
2019-02-27T23:07:21.242Z,71.77
2019-02-27T23:09:53.001Z,63.20
2019-02-27T23:12:24.252Z,56.08
2019-02-27T23:14:55.631Z,47.23
2019-02-27T23:17:27.034Z,43.42
2019-02-27T23:19:58.516Z,36.15
2019-02-27T23:22:29.880Z,39.65
2019-02-27T23:25:01.283Z,36.63
2019-02-27T23:27:32.737Z,36.35
2019-02-27T23:30:05.683Z,36.60
2019-02-27T23:32:37.058Z,35.45
2019-02-27T23:35:08.520Z,39.27
2019-02-27T23:37:39.852Z,38.42
2019-02-27T23:40:11.151Z,42.17
2019-02-27T23:42:42.519Z,36.03
2019-02-27T23:45:13.912Z,39.85
2019-02-27T23:47:45.360Z,40.33
2019-02-27T23:50:16.820Z,34.50
2019-02-27T23:52:48.141Z,27.90
2019-02-27T23:55:19.609Z,38.53
2019-02-27T23:57:51.063Z,39.33
